sensor_id;sensor_type;location;lat;lon;timestamp;P1;durP1;ratioP1;P2;durP2;ratioP2
35245;SDS011;21379;50.962;6.960;2024-01-30T00:00:51;11.95;;;6.82;;
35245;SDS011;21379;50.962;6.960;2024-01-30T00:03:18;13.48;;;6.65;;
35245;SDS011;21379;50.962;6.960;2024-01-30T00:05:45;10.73;;;6.57;;
35245;SDS011;21379;50.962;6.960;2024-01-30T00:08:13;9.38;;;6.13;;
35245;SDS011;21379;50.962;6.960;2024-01-30T00:10:39;11.48;;;6.78;;
35245;SDS011;21379;50.962;6.960;2024-01-30T00:13:06;12.07;;;6.30;;
35245;SDS011;21379;50.962;6.960;2024-01-30T00:15:33;13.52;;;6.72;;
35245;SDS011;21379;50.962;6.960;2024-01-30T00:18:00;14.45;;;7.15;;
35245;SDS011;21379;50.962;6.960;2024-01-30T00:20:27;13.10;;;7.15;;
35245;SDS011;21379;50.962;6.960;2024-01-30T00:22:53;10.43;;;6.10;;
35245;SDS011;21379;50.962;6.960;2024-01-30T00:25:21;10.80;;;6.47;;
35245;SDS011;21379;50.962;6.960;2024-01-30T00:30:15;12.00;;;5.93;;
35245;SDS011;21379;50.962;6.960;2024-01-30T00:32:41;13.73;;;6.60;;
35245;SDS011;21379;50.962;6.960;2024-01-30T00:35:08;11.85;;;6.38;;
35245;SDS011;21379;50.962;6.960;2024-01-30T00:37:36;13.25;;;6.22;;
35245;SDS011;21379;50.962;6.960;2024-01-30T00:40:03;12.13;;;7.00;;
35245;SDS011;21379;50.962;6.960;2024-01-30T00:42:32;13.45;;;6.57;;
35245;SDS011;21379;50.962;6.960;2024-01-30T00:44:59;11.20;;;6.95;;
35245;SDS011;21379;50.962;6.960;2024-01-30T00:47:25;14.18;;;6.68;;
35245;SDS011;21379;50.962;6.960;2024-01-30T00:49:52;13.73;;;7.40;;
35245;SDS011;21379;50.962;6.960;2024-01-30T00:52:19;10.32;;;6.53;;
35245;SDS011;21379;50.962;6.960;2024-01-30T00:54:46;13.40;;;6.38;;
35245;SDS011;21379;50.962;6.960;2024-01-30T00:57:12;13.32;;;6.68;;
35245;SDS011;21379;50.962;6.960;2024-01-30T00:59:40;14.98;;;6.75;;
35245;SDS011;21379;50.962;6.960;2024-01-30T01:02:07;19.63;;;7.85;;
35245;SDS011;21379;50.962;6.960;2024-01-30T01:04:34;11.82;;;6.85;;
35245;SDS011;21379;50.962;6.960;2024-01-30T01:07:00;12.45;;;6.50;;
35245;SDS011;21379;50.962;6.960;2024-01-30T01:09:27;10.48;;;6.47;;
35245;SDS011;21379;50.962;6.960;2024-01-30T01:11:54;12.55;;;6.82;;
35245;SDS011;21379;50.962;6.960;2024-01-30T01:14:20;8.63;;;6.00;;
35245;SDS011;21379;50.962;6.960;2024-01-30T01:16:48;12.35;;;7.63;;
35245;SDS011;21379;50.962;6.960;2024-01-30T01:19:15;13.45;;;6.60;;
35245;SDS011;21379;50.962;6.960;2024-01-30T01:21:42;12.20;;;6.50;;
35245;SDS011;21379;50.962;6.960;2024-01-30T01:24:09;11.65;;;6.38;;
35245;SDS011;21379;50.962;6.960;2024-01-30T01:26:35;14.95;;;7.10;;
35245;SDS011;21379;50.962;6.960;2024-01-30T01:29:02;14.95;;;6.72;;
35245;SDS011;21379;50.962;6.960;2024-01-30T01:31:35;10.63;;;6.38;;
35245;SDS011;21379;50.962;6.960;2024-01-30T01:34:06;13.38;;;6.18;;
35245;SDS011;21379;50.962;6.960;2024-01-30T01:36:33;13.35;;;6.95;;
35245;SDS011;21379;50.962;6.960;2024-01-30T01:38:59;13.20;;;6.72;;
35245;SDS011;21379;50.962;6.960;2024-01-30T01:41:29;15.18;;;6.50;;
35245;SDS011;21379;50.962;6.960;2024-01-30T01:43:56;12.18;;;6.82;;
35245;SDS011;21379;50.962;6.960;2024-01-30T01:46:22;12.07;;;6.38;;
35245;SDS011;21379;50.962;6.960;2024-01-30T01:48:49;9.93;;;6.13;;
35245;SDS011;21379;50.962;6.960;2024-01-30T01:51:17;9.52;;;6.00;;
35245;SDS011;21379;50.962;6.960;2024-01-30T01:53:44;12.52;;;6.25;;
35245;SDS011;21379;50.962;6.960;2024-01-30T01:56:11;13.93;;;6.35;;
35245;SDS011;21379;50.962;6.960;2024-01-30T01:58:38;10.82;;;6.30;;
35245;SDS011;21379;50.962;6.960;2024-01-30T02:01:05;11.38;;;6.55;;
35245;SDS011;21379;50.962;6.960;2024-01-30T02:03:32;10.95;;;6.03;;
35245;SDS011;21379;50.962;6.960;2024-01-30T02:06:00;12.68;;;6.40;;
35245;SDS011;21379;50.962;6.960;2024-01-30T02:08:28;12.43;;;7.07;;
35245;SDS011;21379;50.962;6.960;2024-01-30T02:15:49;11.82;;;6.35;;
35245;SDS011;21379;50.962;6.960;2024-01-30T02:18:16;13.07;;;6.25;;
35245;SDS011;21379;50.962;6.960;2024-01-30T02:20:43;10.00;;;6.55;;
35245;SDS011;21379;50.962;6.960;2024-01-30T02:23:11;10.27;;;5.80;;
35245;SDS011;21379;50.962;6.960;2024-01-30T02:25:39;13.93;;;6.80;;
35245;SDS011;21379;50.962;6.960;2024-01-30T02:28:09;12.00;;;6.63;;
35245;SDS011;21379;50.962;6.960;2024-01-30T02:30:36;11.40;;;5.80;;
35245;SDS011;21379;50.962;6.960;2024-01-30T02:33:03;13.80;;;5.97;;
35245;SDS011;21379;50.962;6.960;2024-01-30T02:35:29;11.02;;;6.10;;
35245;SDS011;21379;50.962;6.960;2024-01-30T02:37:56;10.57;;;5.75;;
35245;SDS011;21379;50.962;6.960;2024-01-30T02:40:24;14.15;;;6.53;;
35245;SDS011;21379;50.962;6.960;2024-01-30T02:45:18;10.30;;;6.43;;
35245;SDS011;21379;50.962;6.960;2024-01-30T02:47:45;11.55;;;6.18;;
35245;SDS011;21379;50.962;6.960;2024-01-30T02:50:11;10.45;;;6.32;;
35245;SDS011;21379;50.962;6.960;2024-01-30T02:52:40;12.75;;;6.30;;
35245;SDS011;21379;50.962;6.960;2024-01-30T02:55:09;11.70;;;6.03;;
35245;SDS011;21379;50.962;6.960;2024-01-30T02:57:37;10.32;;;6.03;;
35245;SDS011;21379;50.962;6.960;2024-01-30T03:02:31;14.65;;;6.40;;
35245;SDS011;21379;50.962;6.960;2024-01-30T03:04:58;11.27;;;6.15;;
35245;SDS011;21379;50.962;6.960;2024-01-30T03:07:24;11.05;;;6.35;;
35245;SDS011;21379;50.962;6.960;2024-01-30T03:09:51;12.57;;;6.50;;
35245;SDS011;21379;50.962;6.960;2024-01-30T03:12:20;10.05;;;6.13;;
35245;SDS011;21379;50.962;6.960;2024-01-30T03:14:48;8.75;;;5.93;;
35245;SDS011;21379;50.962;6.960;2024-01-30T03:17:15;11.05;;;6.05;;
35245;SDS011;21379;50.962;6.960;2024-01-30T03:19:42;12.90;;;6.30;;
35245;SDS011;21379;50.962;6.960;2024-01-30T03:22:08;14.30;;;6.40;;
35245;SDS011;21379;50.962;6.960;2024-01-30T03:24:35;11.07;;;6.05;;
35245;SDS011;21379;50.962;6.960;2024-01-30T03:27:02;11.05;;;6.38;;
35245;SDS011;21379;50.962;6.960;2024-01-30T03:29:29;14.60;;;6.22;;
35245;SDS011;21379;50.962;6.960;2024-01-30T03:31:57;12.52;;;6.70;;
35245;SDS011;21379;50.962;6.960;2024-01-30T03:36:50;11.43;;;5.60;;
35245;SDS011;21379;50.962;6.960;2024-01-30T03:39:17;10.80;;;6.05;;
35245;SDS011;21379;50.962;6.960;2024-01-30T03:41:44;11.27;;;6.00;;
35245;SDS011;21379;50.962;6.960;2024-01-30T03:44:10;10.73;;;5.97;;
35245;SDS011;21379;50.962;6.960;2024-01-30T03:46:37;10.40;;;5.43;;
35245;SDS011;21379;50.962;6.960;2024-01-30T03:49:05;9.30;;;5.78;;
35245;SDS011;21379;50.962;6.960;2024-01-30T04:01:18;10.95;;;5.63;;
35245;SDS011;21379;50.962;6.960;2024-01-30T04:03:45;11.27;;;5.65;;
35245;SDS011;21379;50.962;6.960;2024-01-30T04:06:13;11.02;;;5.78;;
35245;SDS011;21379;50.962;6.960;2024-01-30T04:08:40;9.20;;;5.60;;
35245;SDS011;21379;50.962;6.960;2024-01-30T04:11:07;9.45;;;6.15;;
35245;SDS011;21379;50.962;6.960;2024-01-30T04:13:33;14.18;;;5.82;;
35245;SDS011;21379;50.962;6.960;2024-01-30T04:16:00;11.55;;;5.90;;
35245;SDS011;21379;50.962;6.960;2024-01-30T04:18:28;11.63;;;5.75;;
35245;SDS011;21379;50.962;6.960;2024-01-30T04:20:54;12.80;;;5.93;;
35245;SDS011;21379;50.962;6.960;2024-01-30T04:23:23;9.23;;;5.45;;
35245;SDS011;21379;50.962;6.960;2024-01-30T04:30:43;10.95;;;5.28;;
35245;SDS011;21379;50.962;6.960;2024-01-30T04:33:10;12.88;;;5.47;;
35245;SDS011;21379;50.962;6.960;2024-01-30T04:35:36;13.40;;;6.30;;
35245;SDS011;21379;50.962;6.960;2024-01-30T04:38:03;13.10;;;6.32;;
35245;SDS011;21379;50.962;6.960;2024-01-30T04:40:31;10.77;;;5.88;;
35245;SDS011;21379;50.962;6.960;2024-01-30T04:42:58;13.27;;;6.88;;
35245;SDS011;21379;50.962;6.960;2024-01-30T04:45:25;13.07;;;5.57;;
35245;SDS011;21379;50.962;6.960;2024-01-30T04:47:51;14.23;;;7.10;;
35245;SDS011;21379;50.962;6.960;2024-01-30T04:50:18;13.60;;;6.68;;
35245;SDS011;21379;50.962;6.960;2024-01-30T04:52:45;10.80;;;6.30;;
35245;SDS011;21379;50.962;6.960;2024-01-30T04:55:11;10.30;;;6.15;;
35245;SDS011;21379;50.962;6.960;2024-01-30T04:57:39;11.57;;;6.45;;
35245;SDS011;21379;50.962;6.960;2024-01-30T05:00:06;12.43;;;6.40;;
35245;SDS011;21379;50.962;6.960;2024-01-30T05:02:34;12.50;;;6.72;;
35245;SDS011;21379;50.962;6.960;2024-01-30T05:05:00;18.83;;;6.25;;
35245;SDS011;21379;50.962;6.960;2024-01-30T05:07:27;13.50;;;6.68;;
35245;SDS011;21379;50.962;6.960;2024-01-30T05:09:54;13.82;;;6.38;;
35245;SDS011;21379;50.962;6.960;2024-01-30T05:12:21;15.80;;;6.68;;
35245;SDS011;21379;50.962;6.960;2024-01-30T05:14:49;12.07;;;7.15;;
35245;SDS011;21379;50.962;6.960;2024-01-30T05:22:09;12.20;;;6.45;;
35245;SDS011;21379;50.962;6.960;2024-01-30T05:24:36;10.90;;;6.43;;
35245;SDS011;21379;50.962;6.960;2024-01-30T05:27:03;11.68;;;7.05;;
35245;SDS011;21379;50.962;6.960;2024-01-30T05:29:30;15.30;;;7.28;;
35245;SDS011;21379;50.962;6.960;2024-01-30T05:31:58;10.77;;;6.55;;
35245;SDS011;21379;50.962;6.960;2024-01-30T05:41:44;10.90;;;6.07;;
35245;SDS011;21379;50.962;6.960;2024-01-30T05:44:11;14.18;;;5.95;;
35245;SDS011;21379;50.962;6.960;2024-01-30T05:46:37;14.00;;;6.75;;
35245;SDS011;21379;50.962;6.960;2024-01-30T05:49:05;12.15;;;6.70;;
35245;SDS011;21379;50.962;6.960;2024-01-30T05:51:31;12.68;;;6.55;;
35245;SDS011;21379;50.962;6.960;2024-01-30T05:53:58;11.80;;;6.50;;
35245;SDS011;21379;50.962;6.960;2024-01-30T05:56:25;14.82;;;6.85;;
35245;SDS011;21379;50.962;6.960;2024-01-30T05:58:51;12.98;;;6.75;;
35245;SDS011;21379;50.962;6.960;2024-01-30T06:01:21;11.73;;;6.85;;
35245;SDS011;21379;50.962;6.960;2024-01-30T06:03:48;14.25;;;7.47;;
35245;SDS011;21379;50.962;6.960;2024-01-30T06:06:16;12.45;;;7.00;;
35245;SDS011;21379;50.962;6.960;2024-01-30T06:08:43;12.07;;;6.38;;
35245;SDS011;21379;50.962;6.960;2024-01-30T06:11:10;13.95;;;7.30;;
35245;SDS011;21379;50.962;6.960;2024-01-30T06:13:36;14.35;;;7.13;;
35245;SDS011;21379;50.962;6.960;2024-01-30T06:16:08;12.40;;;6.55;;
35245;SDS011;21379;50.962;6.960;2024-01-30T06:18:35;10.50;;;6.43;;
35245;SDS011;21379;50.962;6.960;2024-01-30T06:21:02;11.75;;;6.50;;
35245;SDS011;21379;50.962;6.960;2024-01-30T06:25:58;10.98;;;5.90;;
35245;SDS011;21379;50.962;6.960;2024-01-30T06:28:25;12.13;;;6.03;;
35245;SDS011;21379;50.962;6.960;2024-01-30T06:30:52;12.52;;;7.40;;
35245;SDS011;21379;50.962;6.960;2024-01-30T06:33:18;13.00;;;6.35;;
35245;SDS011;21379;50.962;6.960;2024-01-30T06:35:45;12.50;;;6.55;;
35245;SDS011;21379;50.962;6.960;2024-01-30T06:38:12;13.77;;;6.97;;
35245;SDS011;21379;50.962;6.960;2024-01-30T06:40:42;13.82;;;7.00;;
35245;SDS011;21379;50.962;6.960;2024-01-30T06:45:38;12.75;;;5.90;;
35245;SDS011;21379;50.962;6.960;2024-01-30T06:48:11;13.15;;;5.93;;
35245;SDS011;21379;50.962;6.960;2024-01-30T06:50:43;10.95;;;6.68;;
35245;SDS011;21379;50.962;6.960;2024-01-30T06:53:15;12.63;;;6.32;;
35245;SDS011;21379;50.962;6.960;2024-01-30T06:55:46;15.95;;;6.72;;
35245;SDS011;21379;50.962;6.960;2024-01-30T06:58:15;15.43;;;6.60;;
35245;SDS011;21379;50.962;6.960;2024-01-30T07:00:42;10.30;;;6.82;;
35245;SDS011;21379;50.962;6.960;2024-01-30T07:03:18;12.88;;;7.13;;
35245;SDS011;21379;50.962;6.960;2024-01-30T07:05:45;12.15;;;6.55;;
35245;SDS011;21379;50.962;6.960;2024-01-30T07:08:14;13.65;;;7.38;;
35245;SDS011;21379;50.962;6.960;2024-01-30T07:10:42;13.05;;;6.85;;
35245;SDS011;21379;50.962;6.960;2024-01-30T07:13:11;14.45;;;8.02;;
35245;SDS011;21379;50.962;6.960;2024-01-30T07:15:43;12.50;;;6.90;;
35245;SDS011;21379;50.962;6.960;2024-01-30T07:18:11;13.35;;;6.90;;
35245;SDS011;21379;50.962;6.960;2024-01-30T07:20:39;12.02;;;7.03;;
35245;SDS011;21379;50.962;6.960;2024-01-30T07:23:10;11.15;;;6.70;;
35245;SDS011;21379;50.962;6.960;2024-01-30T07:25:39;13.80;;;6.65;;
35245;SDS011;21379;50.962;6.960;2024-01-30T07:28:06;11.98;;;6.63;;
35245;SDS011;21379;50.962;6.960;2024-01-30T07:30:35;10.60;;;6.80;;
35245;SDS011;21379;50.962;6.960;2024-01-30T07:33:02;14.30;;;6.93;;
35245;SDS011;21379;50.962;6.960;2024-01-30T07:35:32;11.35;;;7.00;;
35245;SDS011;21379;50.962;6.960;2024-01-30T07:37:59;12.85;;;6.65;;
35245;SDS011;21379;50.962;6.960;2024-01-30T07:40:25;12.90;;;6.70;;
35245;SDS011;21379;50.962;6.960;2024-01-30T07:42:52;12.73;;;6.50;;
35245;SDS011;21379;50.962;6.960;2024-01-30T07:45:19;12.57;;;6.32;;
35245;SDS011;21379;50.962;6.960;2024-01-30T07:47:48;13.85;;;7.65;;
35245;SDS011;21379;50.962;6.960;2024-01-30T07:50:15;10.93;;;6.22;;
35245;SDS011;21379;50.962;6.960;2024-01-30T07:52:42;10.13;;;6.40;;
35245;SDS011;21379;50.962;6.960;2024-01-30T07:55:09;10.27;;;6.35;;
35245;SDS011;21379;50.962;6.960;2024-01-30T07:57:34;13.43;;;6.43;;
35245;SDS011;21379;50.962;6.960;2024-01-30T08:00:01;18.15;;;6.80;;
35245;SDS011;21379;50.962;6.960;2024-01-30T08:02:32;14.27;;;6.40;;
35245;SDS011;21379;50.962;6.960;2024-01-30T08:05:00;11.02;;;6.75;;
35245;SDS011;21379;50.962;6.960;2024-01-30T08:09:54;14.68;;;6.28;;
35245;SDS011;21379;50.962;6.960;2024-01-30T08:12:21;11.15;;;5.88;;
35245;SDS011;21379;50.962;6.960;2024-01-30T08:14:48;11.77;;;5.45;;
35245;SDS011;21379;50.962;6.960;2024-01-30T08:17:14;14.48;;;7.15;;
35245;SDS011;21379;50.962;6.960;2024-01-30T08:19:41;11.02;;;6.55;;
35245;SDS011;21379;50.962;6.960;2024-01-30T08:22:09;15.15;;;6.22;;
35245;SDS011;21379;50.962;6.960;2024-01-30T08:24:38;10.63;;;6.13;;
35245;SDS011;21379;50.962;6.960;2024-01-30T08:27:05;12.52;;;6.20;;
35245;SDS011;21379;50.962;6.960;2024-01-30T08:29:34;12.55;;;6.20;;
35245;SDS011;21379;50.962;6.960;2024-01-30T08:32:01;10.98;;;6.13;;
35245;SDS011;21379;50.962;6.960;2024-01-30T08:34:28;15.55;;;6.15;;
35245;SDS011;21379;50.962;6.960;2024-01-30T08:36:54;15.15;;;6.43;;
35245;SDS011;21379;50.962;6.960;2024-01-30T08:39:23;12.20;;;6.20;;
35245;SDS011;21379;50.962;6.960;2024-01-30T08:41:49;13.13;;;6.15;;
35245;SDS011;21379;50.962;6.960;2024-01-30T08:44:16;11.07;;;5.75;;
35245;SDS011;21379;50.962;6.960;2024-01-30T08:46:43;15.25;;;6.60;;
35245;SDS011;21379;50.962;6.960;2024-01-30T08:49:09;10.82;;;6.32;;
35245;SDS011;21379;50.962;6.960;2024-01-30T08:51:38;10.45;;;5.93;;
35245;SDS011;21379;50.962;6.960;2024-01-30T08:54:05;14.52;;;6.28;;
35245;SDS011;21379;50.962;6.960;2024-01-30T08:56:33;11.23;;;5.88;;
35245;SDS011;21379;50.962;6.960;2024-01-30T09:03:52;12.30;;;6.10;;
35245;SDS011;21379;50.962;6.960;2024-01-30T09:06:19;12.50;;;6.35;;
35245;SDS011;21379;50.962;6.960;2024-01-30T09:08:46;13.32;;;5.97;;
35245;SDS011;21379;50.962;6.960;2024-01-30T09:11:13;11.27;;;6.07;;
35245;SDS011;21379;50.962;6.960;2024-01-30T09:13:42;13.52;;;6.63;;
35245;SDS011;21379;50.962;6.960;2024-01-30T09:16:09;12.82;;;5.93;;
35245;SDS011;21379;50.962;6.960;2024-01-30T09:18:35;10.07;;;5.63;;
35245;SDS011;21379;50.962;6.960;2024-01-30T09:21:02;13.43;;;6.38;;
35245;SDS011;21379;50.962;6.960;2024-01-30T09:23:29;11.50;;;6.57;;
35245;SDS011;21379;50.962;6.960;2024-01-30T09:25:56;11.63;;;6.13;;
35245;SDS011;21379;50.962;6.960;2024-01-30T09:28:22;9.85;;;5.32;;
35245;SDS011;21379;50.962;6.960;2024-01-30T09:30:51;16.77;;;6.88;;
35245;SDS011;21379;50.962;6.960;2024-01-30T09:35:44;14.05;;;6.15;;
35245;SDS011;21379;50.962;6.960;2024-01-30T09:38:11;14.23;;;6.78;;
35245;SDS011;21379;50.962;6.960;2024-01-30T09:40:37;14.48;;;6.63;;
35245;SDS011;21379;50.962;6.960;2024-01-30T09:43:04;11.27;;;6.03;;
35245;SDS011;21379;50.962;6.960;2024-01-30T09:45:31;14.07;;;5.68;;
35245;SDS011;21379;50.962;6.960;2024-01-30T09:48:00;13.52;;;5.40;;
35245;SDS011;21379;50.962;6.960;2024-01-30T09:50:27;13.43;;;6.07;;
35245;SDS011;21379;50.962;6.960;2024-01-30T09:52:54;11.38;;;5.72;;
35245;SDS011;21379;50.962;6.960;2024-01-30T09:55:21;12.23;;;5.78;;
35245;SDS011;21379;50.962;6.960;2024-01-30T09:57:48;8.82;;;5.55;;
35245;SDS011;21379;50.962;6.960;2024-01-30T10:00:15;11.65;;;6.05;;
35245;SDS011;21379;50.962;6.960;2024-01-30T10:02:42;12.75;;;6.32;;
35245;SDS011;21379;50.962;6.960;2024-01-30T10:05:11;13.75;;;5.70;;
35245;SDS011;21379;50.962;6.960;2024-01-30T10:07:49;12.90;;;6.32;;
35245;SDS011;21379;50.962;6.960;2024-01-30T10:10:16;12.35;;;6.57;;
35245;SDS011;21379;50.962;6.960;2024-01-30T10:12:43;12.65;;;6.38;;
35245;SDS011;21379;50.962;6.960;2024-01-30T10:15:10;13.00;;;5.97;;
35245;SDS011;21379;50.962;6.960;2024-01-30T10:17:37;11.85;;;6.18;;
35245;SDS011;21379;50.962;6.960;2024-01-30T10:20:04;12.60;;;6.35;;
35245;SDS011;21379;50.962;6.960;2024-01-30T10:22:34;9.80;;;5.47;;
35245;SDS011;21379;50.962;6.960;2024-01-30T10:25:01;14.77;;;7.03;;
35245;SDS011;21379;50.962;6.960;2024-01-30T10:27:28;11.48;;;6.93;;
35245;SDS011;21379;50.962;6.960;2024-01-30T10:29:55;13.23;;;6.75;;
35245;SDS011;21379;50.962;6.960;2024-01-30T10:32:22;12.02;;;5.80;;
35245;SDS011;21379;50.962;6.960;2024-01-30T10:34:48;11.88;;;6.07;;
35245;SDS011;21379;50.962;6.960;2024-01-30T10:37:15;12.15;;;6.07;;
35245;SDS011;21379;50.962;6.960;2024-01-30T10:39:44;9.73;;;5.90;;
35245;SDS011;21379;50.962;6.960;2024-01-30T10:42:11;14.45;;;5.93;;
35245;SDS011;21379;50.962;6.960;2024-01-30T10:44:43;12.88;;;6.10;;
35245;SDS011;21379;50.962;6.960;2024-01-30T10:47:11;13.07;;;5.53;;
35245;SDS011;21379;50.962;6.960;2024-01-30T10:49:39;12.23;;;5.78;;
35245;SDS011;21379;50.962;6.960;2024-01-30T10:52:08;11.13;;;5.70;;
35245;SDS011;21379;50.962;6.960;2024-01-30T10:54:35;13.38;;;6.20;;
35245;SDS011;21379;50.962;6.960;2024-01-30T10:57:04;12.10;;;6.18;;
35245;SDS011;21379;50.962;6.960;2024-01-30T10:59:31;8.98;;;5.63;;
35245;SDS011;21379;50.962;6.960;2024-01-30T11:01:58;11.57;;;5.88;;
35245;SDS011;21379;50.962;6.960;2024-01-30T11:04:26;9.13;;;5.45;;
35245;SDS011;21379;50.962;6.960;2024-01-30T11:06:52;12.23;;;5.47;;
35245;SDS011;21379;50.962;6.960;2024-01-30T11:09:20;12.32;;;6.03;;
35245;SDS011;21379;50.962;6.960;2024-01-30T11:11:50;8.93;;;5.70;;
35245;SDS011;21379;50.962;6.960;2024-01-30T11:14:23;13.40;;;5.60;;
35245;SDS011;21379;50.962;6.960;2024-01-30T11:16:51;11.55;;;5.72;;
35245;SDS011;21379;50.962;6.960;2024-01-30T11:19:22;15.68;;;5.93;;
35245;SDS011;21379;50.962;6.960;2024-01-30T11:21:50;12.43;;;5.80;;
35245;SDS011;21379;50.962;6.960;2024-01-30T11:24:19;13.32;;;5.88;;
35245;SDS011;21379;50.962;6.960;2024-01-30T11:29:14;8.73;;;5.03;;
35245;SDS011;21379;50.962;6.960;2024-01-30T11:31:41;10.38;;;5.25;;
35245;SDS011;21379;50.962;6.960;2024-01-30T11:34:18;10.98;;;6.05;;
35245;SDS011;21379;50.962;6.960;2024-01-30T11:36:45;12.00;;;6.05;;
35245;SDS011;21379;50.962;6.960;2024-01-30T11:39:17;10.18;;;5.80;;
35245;SDS011;21379;50.962;6.960;2024-01-30T11:41:47;10.52;;;5.85;;
35245;SDS011;21379;50.962;6.960;2024-01-30T11:44:15;10.07;;;5.20;;
35245;SDS011;21379;50.962;6.960;2024-01-30T11:46:43;8.95;;;5.47;;
35245;SDS011;21379;50.962;6.960;2024-01-30T11:49:09;9.43;;;5.43;;
35245;SDS011;21379;50.962;6.960;2024-01-30T11:51:36;8.80;;;5.57;;
35245;SDS011;21379;50.962;6.960;2024-01-30T11:54:03;10.48;;;5.22;;
35245;SDS011;21379;50.962;6.960;2024-01-30T11:56:30;10.40;;;5.53;;
35245;SDS011;21379;50.962;6.960;2024-01-30T11:58:56;13.63;;;6.18;;
35245;SDS011;21379;50.962;6.960;2024-01-30T12:01:25;9.38;;;5.20;;
35245;SDS011;21379;50.962;6.960;2024-01-30T12:03:53;12.23;;;4.93;;
35245;SDS011;21379;50.962;6.960;2024-01-30T12:06:22;10.10;;;5.40;;
35245;SDS011;21379;50.962;6.960;2024-01-30T12:08:56;10.55;;;5.13;;
35245;SDS011;21379;50.962;6.960;2024-01-30T12:11:23;12.35;;;5.70;;
35245;SDS011;21379;50.962;6.960;2024-01-30T12:13:50;12.70;;;5.47;;
35245;SDS011;21379;50.962;6.960;2024-01-30T12:16:17;13.13;;;5.15;;
35245;SDS011;21379;50.962;6.960;2024-01-30T12:18:44;14.00;;;5.60;;
35245;SDS011;21379;50.962;6.960;2024-01-30T12:21:12;12.48;;;5.75;;
35245;SDS011;21379;50.962;6.960;2024-01-30T12:23:42;10.10;;;5.47;;
35245;SDS011;21379;50.962;6.960;2024-01-30T12:26:09;9.15;;;5.05;;
35245;SDS011;21379;50.962;6.960;2024-01-30T12:28:36;13.07;;;6.13;;
35245;SDS011;21379;50.962;6.960;2024-01-30T12:31:03;13.00;;;5.75;;
35245;SDS011;21379;50.962;6.960;2024-01-30T12:33:30;12.23;;;5.70;;
35245;SDS011;21379;50.962;6.960;2024-01-30T12:35:57;9.55;;;5.15;;
35245;SDS011;21379;50.962;6.960;2024-01-30T12:38:25;11.25;;;5.10;;
35245;SDS011;21379;50.962;6.960;2024-01-30T12:40:53;13.60;;;5.18;;
35245;SDS011;21379;50.962;6.960;2024-01-30T12:43:20;16.27;;;4.93;;
35245;SDS011;21379;50.962;6.960;2024-01-30T12:45:47;8.45;;;4.63;;
35245;SDS011;21379;50.962;6.960;2024-01-30T12:48:14;9.52;;;4.93;;
35245;SDS011;21379;50.962;6.960;2024-01-30T12:50:41;10.95;;;5.57;;
35245;SDS011;21379;50.962;6.960;2024-01-30T12:53:08;10.30;;;5.18;;
35245;SDS011;21379;50.962;6.960;2024-01-30T12:55:36;9.57;;;5.65;;
35245;SDS011;21379;50.962;6.960;2024-01-30T12:58:03;12.65;;;5.28;;
35245;SDS011;21379;50.962;6.960;2024-01-30T13:00:31;11.82;;;5.43;;
35245;SDS011;21379;50.962;6.960;2024-01-30T13:02:59;11.82;;;4.82;;
35245;SDS011;21379;50.962;6.960;2024-01-30T13:05:26;10.32;;;5.63;;
35245;SDS011;21379;50.962;6.960;2024-01-30T13:07:52;9.00;;;5.03;;
35245;SDS011;21379;50.962;6.960;2024-01-30T13:10:21;10.40;;;5.22;;
35245;SDS011;21379;50.962;6.960;2024-01-30T13:12:49;9.85;;;5.10;;
35245;SDS011;21379;50.962;6.960;2024-01-30T13:15:17;11.85;;;5.70;;
35245;SDS011;21379;50.962;6.960;2024-01-30T13:17:43;10.25;;;5.43;;
35245;SDS011;21379;50.962;6.960;2024-01-30T13:20:12;10.27;;;5.18;;
35245;SDS011;21379;50.962;6.960;2024-01-30T13:22:42;10.02;;;5.40;;
35245;SDS011;21379;50.962;6.960;2024-01-30T13:25:09;10.73;;;5.60;;
35245;SDS011;21379;50.962;6.960;2024-01-30T13:27:36;14.75;;;6.45;;
35245;SDS011;21379;50.962;6.960;2024-01-30T13:30:06;10.57;;;5.88;;
35245;SDS011;21379;50.962;6.960;2024-01-30T13:32:35;13.20;;;5.55;;
35245;SDS011;21379;50.962;6.960;2024-01-30T13:35:02;10.40;;;4.80;;
35245;SDS011;21379;50.962;6.960;2024-01-30T13:37:29;9.85;;;4.35;;
35245;SDS011;21379;50.962;6.960;2024-01-30T13:39:56;8.52;;;4.85;;
35245;SDS011;21379;50.962;6.960;2024-01-30T13:42:23;9.93;;;4.32;;
35245;SDS011;21379;50.962;6.960;2024-01-30T13:44:49;8.98;;;4.68;;
35245;SDS011;21379;50.962;6.960;2024-01-30T13:47:17;8.23;;;3.92;;
35245;SDS011;21379;50.962;6.960;2024-01-30T13:49:46;7.50;;;3.63;;
35245;SDS011;21379;50.962;6.960;2024-01-30T13:52:13;10.05;;;4.22;;
35245;SDS011;21379;50.962;6.960;2024-01-30T13:54:40;6.70;;;3.50;;
35245;SDS011;21379;50.962;6.960;2024-01-30T13:57:06;10.77;;;4.35;;
35245;SDS011;21379;50.962;6.960;2024-01-30T13:59:33;8.25;;;3.63;;
35245;SDS011;21379;50.962;6.960;2024-01-30T14:02:00;8.68;;;3.65;;
35245;SDS011;21379;50.962;6.960;2024-01-30T14:04:28;6.00;;;3.50;;
35245;SDS011;21379;50.962;6.960;2024-01-30T14:06:55;8.13;;;4.20;;
35245;SDS011;21379;50.962;6.960;2024-01-30T14:09:22;9.10;;;4.07;;
35245;SDS011;21379;50.962;6.960;2024-01-30T14:11:48;7.70;;;3.65;;
35245;SDS011;21379;50.962;6.960;2024-01-30T14:14:15;7.65;;;3.95;;
35245;SDS011;21379;50.962;6.960;2024-01-30T14:16:42;5.78;;;3.30;;
35245;SDS011;21379;50.962;6.960;2024-01-30T14:19:08;6.63;;;3.78;;
35245;SDS011;21379;50.962;6.960;2024-01-30T14:21:36;5.53;;;3.05;;
35245;SDS011;21379;50.962;6.960;2024-01-30T14:24:03;9.80;;;3.90;;
35245;SDS011;21379;50.962;6.960;2024-01-30T14:26:30;4.78;;;2.92;;
35245;SDS011;21379;50.962;6.960;2024-01-30T14:28:57;5.45;;;3.17;;
35245;SDS011;21379;50.962;6.960;2024-01-30T14:31:24;8.35;;;3.10;;
35245;SDS011;21379;50.962;6.960;2024-01-30T14:33:50;9.43;;;3.83;;
35245;SDS011;21379;50.962;6.960;2024-01-30T14:36:17;5.72;;;3.88;;
35245;SDS011;21379;50.962;6.960;2024-01-30T14:38:47;8.93;;;3.50;;
35245;SDS011;21379;50.962;6.960;2024-01-30T14:41:13;8.50;;;3.97;;
35245;SDS011;21379;50.962;6.960;2024-01-30T14:43:40;6.55;;;3.95;;
35245;SDS011;21379;50.962;6.960;2024-01-30T14:46:07;8.60;;;3.72;;
35245;SDS011;21379;50.962;6.960;2024-01-30T14:48:34;5.85;;;3.83;;
35245;SDS011;21379;50.962;6.960;2024-01-30T14:51:01;7.18;;;3.50;;
35245;SDS011;21379;50.962;6.960;2024-01-30T14:53:28;7.88;;;4.00;;
35245;SDS011;21379;50.962;6.960;2024-01-30T14:55:56;10.90;;;4.10;;
35245;SDS011;21379;50.962;6.960;2024-01-30T14:58:22;8.43;;;4.38;;
35245;SDS011;21379;50.962;6.960;2024-01-30T15:00:49;9.25;;;4.32;;
35245;SDS011;21379;50.962;6.960;2024-01-30T15:03:16;7.05;;;3.72;;
35245;SDS011;21379;50.962;6.960;2024-01-30T15:05:42;9.77;;;4.65;;
35245;SDS011;21379;50.962;6.960;2024-01-30T15:08:09;10.23;;;4.57;;
35245;SDS011;21379;50.962;6.960;2024-01-30T15:10:36;7.20;;;3.67;;
35245;SDS011;21379;50.962;6.960;2024-01-30T15:13:04;6.82;;;4.75;;
35245;SDS011;21379;50.962;6.960;2024-01-30T15:15:31;8.98;;;4.60;;
35245;SDS011;21379;50.962;6.960;2024-01-30T15:17:57;7.20;;;4.25;;
35245;SDS011;21379;50.962;6.960;2024-01-30T15:20:24;9.07;;;4.90;;
35245;SDS011;21379;50.962;6.960;2024-01-30T15:22:51;12.15;;;4.80;;
35245;SDS011;21379;50.962;6.960;2024-01-30T15:25:17;14.18;;;4.50;;
35245;SDS011;21379;50.962;6.960;2024-01-30T15:27:44;9.15;;;4.38;;
35245;SDS011;21379;50.962;6.960;2024-01-30T15:30:13;7.88;;;4.45;;
35245;SDS011;21379;50.962;6.960;2024-01-30T15:32:40;6.82;;;3.80;;
35245;SDS011;21379;50.962;6.960;2024-01-30T15:35:08;8.15;;;3.92;;
35245;SDS011;21379;50.962;6.960;2024-01-30T15:37:35;12.65;;;4.32;;